DLH07X EDDM-EKCH
Flight info
| Callsign | DLH07X |
|---|---|
| Flight time | 1h 9m |
| Altitude | 37000 |
| Route | INPUD2N INPUD Y102 UPALA M726 LASGA DCT BKD DCT LUWIL DCT BERIM DCT MAKEL N851 GESKA Z711 MONAK |
| Aircraft | A346/H-SDE2E3FGHIJ3J4J5M1RWXY/LB1D1 |
Departure
| Time | 2026-05-07 09:17 |
|---|---|
| Airport | Munich Airport (EDDM) |
Arrival
| Time | 2026-05-07 10:26 |
|---|---|
| Airport | Copenhagen Kastrup Airport (EKCH) |
| Time | Latitude | Longitude | Altitude | Speed | Heading |
|---|---|---|---|---|---|
| 2026-05-07 08:59 | 48.35308 | 11.79363 | 1487 ft | 0 kts | 262° |
| 2026-05-07 09:07 | 48.35309 | 11.79376 | 1494 ft | 4 kts | 263° |
| 2026-05-07 09:07 | 48.35312 | 11.79416 | 1479 ft | 3 kts | 263° |
| 2026-05-07 09:07 | 48.35313 | 11.79449 | 1484 ft | 4 kts | 283° |
| 2026-05-07 09:08 | 48.35305 | 11.79472 | 1477 ft | 4 kts | 321° |
| 2026-05-07 09:08 | 48.35286 | 11.79484 | 1477 ft | 4 kts | 352° |
| 2026-05-07 09:08 | 48.35259 | 11.79488 | 1480 ft | 3 kts | 354° |
| 2026-05-07 09:08 | 48.35255 | 11.79488 | 1477 ft | 0 kts | 353° |
| 2026-05-07 09:10 | 48.35261 | 11.79487 | 1494 ft | 2 kts | 353° |
| 2026-05-07 09:11 | 48.35291 | 11.79482 | 1479 ft | 6 kts | 353° |
| 2026-05-07 09:11 | 48.35346 | 11.79473 | 1483 ft | 10 kts | 353° |
| 2026-05-07 09:11 | 48.35426 | 11.79459 | 1494 ft | 13 kts | 353° |
| 2026-05-07 09:11 | 48.35529 | 11.79441 | 1494 ft | 17 kts | 353° |
| 2026-05-07 09:12 | 48.35655 | 11.79419 | 1487 ft | 20 kts | 353° |
| 2026-05-07 09:12 | 48.35794 | 11.79395 | 1480 ft | 17 kts | 352° |
| 2026-05-07 09:12 | 48.35920 | 11.79350 | 1479 ft | 20 kts | 345° |
| 2026-05-07 09:12 | 48.36055 | 11.79332 | 1479 ft | 17 kts | 358° |
| 2026-05-07 09:13 | 48.36178 | 11.79344 | 1477 ft | 19 kts | 32° |
| 2026-05-07 09:13 | 48.36221 | 11.79539 | 1494 ft | 22 kts | 84° |
| 2026-05-07 09:13 | 48.36237 | 11.79779 | 1480 ft | 24 kts | 84° |
| 2026-05-07 09:13 | 48.36256 | 11.80040 | 1494 ft | 26 kts | 84° |
| 2026-05-07 09:14 | 48.36277 | 11.80317 | 1483 ft | 27 kts | 84° |
| 2026-05-07 09:14 | 48.36299 | 11.80608 | 1494 ft | 28 kts | 83° |
| 2026-05-07 09:14 | 48.36323 | 11.80911 | 1479 ft | 29 kts | 83° |
| 2026-05-07 09:14 | 48.36347 | 11.81218 | 1487 ft | 30 kts | 84° |
| 2026-05-07 09:15 | 48.36371 | 11.81537 | 1490 ft | 31 kts | 83° |
| 2026-05-07 09:15 | 48.36392 | 11.81825 | 1480 ft | 21 kts | 84° |
| 2026-05-07 09:15 | 48.36466 | 11.81995 | 1494 ft | 23 kts | 6° |
| 2026-05-07 09:15 | 48.36623 | 11.81966 | 1489 ft | 24 kts | 333° |
| 2026-05-07 09:16 | 48.36664 | 11.81763 | 1480 ft | 11 kts | 264° |
| 2026-05-07 09:16 | 48.36663 | 11.81754 | 1487 ft | 0 kts | 264° |
| 2026-05-07 09:16 | 48.36641 | 11.81452 | 1483 ft | 73 kts | 263° |
| 2026-05-07 09:16 | 48.36547 | 11.80253 | 1491 ft | 153 kts | 263° |
| 2026-05-07 09:17 | 48.36410 | 11.78418 | 1917 ft | 183 kts | 264° |
| 2026-05-07 09:17 | 48.36274 | 11.76547 | 3088 ft | 176 kts | 262° |
| 2026-05-07 09:17 | 48.36116 | 11.74726 | 4110 ft | 176 kts | 262° |
| 2026-05-07 09:17 | 48.35936 | 11.72807 | 4734 ft | 192 kts | 262° |
| 2026-05-07 09:18 | 48.35741 | 11.70724 | 5308 ft | 209 kts | 262° |
| 2026-05-07 09:18 | 48.35785 | 11.68465 | 5894 ft | 226 kts | 288° |
| 2026-05-07 09:18 | 48.36636 | 11.66466 | 6833 ft | 232 kts | 315° |
| 2026-05-07 09:18 | 48.38071 | 11.65214 | 7606 ft | 251 kts | 341° |
| 2026-05-07 09:19 | 48.39833 | 11.64647 | 8279 ft | 268 kts | 346° |
| 2026-05-07 09:19 | 48.41727 | 11.64128 | 8906 ft | 284 kts | 347° |
| 2026-05-07 09:19 | 48.43705 | 11.63582 | 9728 ft | 292 kts | 347° |
| 2026-05-07 09:19 | 48.45716 | 11.63018 | 10638 ft | 296 kts | 347° |
| 2026-05-07 09:20 | 48.47718 | 11.62446 | 11561 ft | 299 kts | 346° |
| 2026-05-07 09:20 | 48.49772 | 11.61849 | 12458 ft | 303 kts | 345° |
| 2026-05-07 09:20 | 48.51853 | 11.61236 | 13336 ft | 306 kts | 345° |
| 2026-05-07 09:20 | 48.53960 | 11.60611 | 14170 ft | 311 kts | 345° |
| 2026-05-07 09:21 | 48.56092 | 11.59924 | 14974 ft | 315 kts | 342° |
| 2026-05-07 09:21 | 48.58209 | 11.58993 | 15722 ft | 321 kts | 338° |
| 2026-05-07 09:21 | 48.60353 | 11.57811 | 16183 ft | 336 kts | 335° |
| 2026-05-07 09:21 | 48.62596 | 11.56502 | 16578 ft | 354 kts | 335° |
| 2026-05-07 09:22 | 48.64950 | 11.55119 | 16939 ft | 372 kts | 336° |
| 2026-05-07 09:22 | 48.67417 | 11.53680 | 17301 ft | 389 kts | 336° |
| 2026-05-07 09:22 | 48.69973 | 11.52196 | 17898 ft | 397 kts | 336° |
| 2026-05-07 09:22 | 48.72567 | 11.50690 | 18662 ft | 401 kts | 336° |
| 2026-05-07 09:23 | 48.75186 | 11.49172 | 19409 ft | 405 kts | 336° |
| 2026-05-07 09:23 | 48.77817 | 11.47646 | 20101 ft | 410 kts | 336° |
| 2026-05-07 09:23 | 48.80489 | 11.46093 | 20802 ft | 414 kts | 336° |
| 2026-05-07 09:23 | 48.83187 | 11.44525 | 21489 ft | 418 kts | 336° |
| 2026-05-07 09:24 | 48.85916 | 11.42937 | 22160 ft | 422 kts | 336° |
| 2026-05-07 09:24 | 48.88669 | 11.41332 | 22805 ft | 426 kts | 336° |
| 2026-05-07 09:24 | 48.91444 | 11.39713 | 23435 ft | 430 kts | 336° |
| 2026-05-07 09:24 | 48.94245 | 11.38076 | 24061 ft | 433 kts | 336° |
| 2026-05-07 09:25 | 48.97075 | 11.36420 | 24667 ft | 437 kts | 336° |
| 2026-05-07 09:25 | 48.99925 | 11.34752 | 25241 ft | 441 kts | 336° |
| 2026-05-07 09:25 | 49.02820 | 11.33057 | 25774 ft | 446 kts | 336° |
| 2026-05-07 09:25 | 49.05735 | 11.31347 | 26276 ft | 452 kts | 336° |
| 2026-05-07 09:26 | 49.08683 | 11.29616 | 26785 ft | 456 kts | 336° |
| 2026-05-07 09:26 | 49.11656 | 11.27867 | 27283 ft | 460 kts | 336° |
| 2026-05-07 09:26 | 49.14660 | 11.26096 | 27770 ft | 465 kts | 336° |
| 2026-05-07 09:26 | 49.17707 | 11.24386 | 28307 ft | 469 kts | 339° |
| 2026-05-07 09:27 | 49.20879 | 11.23089 | 28776 ft | 475 kts | 345° |
| 2026-05-07 09:27 | 49.24169 | 11.22295 | 29232 ft | 482 kts | 352° |
| 2026-05-07 09:27 | 49.30926 | 11.22037 | 30284 ft | 487 kts | 359° |
| 2026-05-07 09:28 | 49.34305 | 11.22111 | 30983 ft | 484 kts | 359° |
| 2026-05-07 09:28 | 49.37666 | 11.22187 | 31637 ft | 482 kts | 359° |
| 2026-05-07 09:28 | 49.40970 | 11.22244 | 32222 ft | 481 kts | 358° |
| 2026-05-07 09:28 | 49.44313 | 11.22286 | 32783 ft | 481 kts | 358° |
| 2026-05-07 09:29 | 49.47657 | 11.22320 | 33337 ft | 480 kts | 358° |
| 2026-05-07 09:29 | 49.50992 | 11.22348 | 33882 ft | 479 kts | 358° |
| 2026-05-07 09:29 | 49.54320 | 11.22376 | 34406 ft | 478 kts | 358° |
| 2026-05-07 09:29 | 49.57648 | 11.22393 | 34907 ft | 478 kts | 358° |
| 2026-05-07 09:30 | 49.60968 | 11.22398 | 35389 ft | 477 kts | 358° |
| 2026-05-07 09:30 | 49.64290 | 11.22400 | 35800 ft | 478 kts | 358° |
| 2026-05-07 09:30 | 49.67624 | 11.22403 | 36125 ft | 480 kts | 358° |
| 2026-05-07 09:30 | 49.70970 | 11.22408 | 36452 ft | 482 kts | 358° |
| 2026-05-07 09:31 | 49.74335 | 11.22416 | 36774 ft | 484 kts | 358° |
| 2026-05-07 09:31 | 49.77702 | 11.22424 | 36984 ft | 484 kts | 358° |
| 2026-05-07 09:31 | 49.81062 | 11.22439 | 36976 ft | 482 kts | 358° |
| 2026-05-07 09:32 | 49.87724 | 11.22479 | 36981 ft | 479 kts | 358° |
| 2026-05-07 09:32 | 49.94391 | 11.22521 | 36971 ft | 479 kts | 358° |
| 2026-05-07 09:33 | 50.01049 | 11.22562 | 36970 ft | 479 kts | 358° |
| 2026-05-07 09:33 | 50.07697 | 11.22599 | 36970 ft | 477 kts | 359° |
| 2026-05-07 09:34 | 50.14341 | 11.22636 | 36962 ft | 477 kts | 359° |
| 2026-05-07 09:34 | 50.20973 | 11.22676 | 36960 ft | 477 kts | 359° |
| 2026-05-07 09:35 | 50.27609 | 11.22718 | 36961 ft | 477 kts | 359° |
| 2026-05-07 09:35 | 50.34251 | 11.22760 | 36960 ft | 477 kts | 359° |
| 2026-05-07 09:36 | 50.40882 | 11.23256 | 36961 ft | 477 kts | 2° |
| 2026-05-07 09:36 | 50.47506 | 11.24016 | 36961 ft | 477 kts | 3° |
| 2026-05-07 09:37 | 50.54123 | 11.24781 | 36961 ft | 477 kts | 2° |
| 2026-05-07 09:37 | 50.60741 | 11.25537 | 36961 ft | 477 kts | 2° |
| 2026-05-07 09:38 | 50.67311 | 11.26285 | 36969 ft | 477 kts | 2° |
| 2026-05-07 09:38 | 50.73924 | 11.27038 | 36969 ft | 476 kts | 2° |
| 2026-05-07 09:39 | 50.80540 | 11.27794 | 36970 ft | 476 kts | 2° |
| 2026-05-07 09:39 | 50.87149 | 11.28550 | 36970 ft | 476 kts | 2° |
| 2026-05-07 09:40 | 50.93760 | 11.29309 | 36970 ft | 476 kts | 3° |
| 2026-05-07 09:40 | 51.00359 | 11.30068 | 36969 ft | 476 kts | 3° |
| 2026-05-07 09:41 | 51.05859 | 11.30704 | 36976 ft | 476 kts | 3° |
| 2026-05-07 09:41 | 51.12503 | 11.31473 | 36979 ft | 476 kts | 3° |
| 2026-05-07 09:42 | 51.19116 | 11.32240 | 36978 ft | 476 kts | 3° |
| 2026-05-07 09:42 | 51.25679 | 11.33004 | 36979 ft | 476 kts | 3° |
| 2026-05-07 09:43 | 51.32291 | 11.33776 | 36979 ft | 476 kts | 3° |
| 2026-05-07 09:43 | 51.38901 | 11.34550 | 36987 ft | 476 kts | 3° |
| 2026-05-07 09:44 | 51.45512 | 11.35326 | 36988 ft | 476 kts | 3° |
| 2026-05-07 09:44 | 51.52123 | 11.36104 | 36987 ft | 476 kts | 3° |
| 2026-05-07 09:45 | 51.58735 | 11.36885 | 36995 ft | 476 kts | 3° |
| 2026-05-07 09:45 | 51.65345 | 11.37669 | 36997 ft | 477 kts | 3° |
| 2026-05-07 09:46 | 51.71962 | 11.38455 | 36997 ft | 477 kts | 3° |
| 2026-05-07 09:46 | 51.78577 | 11.39243 | 36998 ft | 477 kts | 3° |
| 2026-05-07 09:47 | 51.85198 | 11.40034 | 36997 ft | 477 kts | 3° |
| 2026-05-07 09:47 | 51.91816 | 11.40827 | 36998 ft | 477 kts | 3° |
| 2026-05-07 09:48 | 51.98391 | 11.41617 | 36998 ft | 477 kts | 3° |
| 2026-05-07 09:48 | 52.04999 | 11.42415 | 36999 ft | 477 kts | 3° |
| 2026-05-07 09:49 | 52.11610 | 11.43214 | 37005 ft | 476 kts | 3° |
| 2026-05-07 09:49 | 52.18223 | 11.44016 | 37006 ft | 476 kts | 3° |
| 2026-05-07 09:50 | 52.24833 | 11.44820 | 37007 ft | 476 kts | 3° |
| 2026-05-07 09:50 | 52.31443 | 11.45626 | 37007 ft | 476 kts | 3° |
| 2026-05-07 09:51 | 52.38045 | 11.46434 | 37007 ft | 476 kts | 3° |
| 2026-05-07 09:51 | 52.44641 | 11.47245 | 37010 ft | 475 kts | 3° |
| 2026-05-07 09:52 | 52.51235 | 11.48057 | 37015 ft | 475 kts | 3° |
| 2026-05-07 09:52 | 52.57830 | 11.48872 | 37016 ft | 475 kts | 3° |
| 2026-05-07 09:53 | 52.64419 | 11.49688 | 37022 ft | 475 kts | 3° |
| 2026-05-07 09:53 | 52.71010 | 11.50508 | 37025 ft | 475 kts | 3° |
| 2026-05-07 09:54 | 52.77603 | 11.51330 | 37020 ft | 475 kts | 3° |
| 2026-05-07 09:54 | 52.84136 | 11.52148 | 37024 ft | 474 kts | 3° |
| 2026-05-07 09:55 | 52.90711 | 11.52976 | 37025 ft | 474 kts | 3° |
| 2026-05-07 09:55 | 52.97280 | 11.53804 | 37034 ft | 473 kts | 3° |
| 2026-05-07 09:56 | 53.03845 | 11.54068 | 37037 ft | 472 kts | 356° |
| 2026-05-07 09:56 | 53.10366 | 11.53122 | 37042 ft | 470 kts | 351° |
| 2026-05-07 09:57 | 53.16854 | 11.51663 | 37044 ft | 470 kts | 350° |
| 2026-05-07 09:57 | 53.23334 | 11.50194 | 37047 ft | 470 kts | 350° |
| 2026-05-07 09:58 | 53.29809 | 11.48752 | 37046 ft | 469 kts | 350° |
| 2026-05-07 09:58 | 53.36284 | 11.47311 | 36912 ft | 470 kts | 350° |
| 2026-05-07 09:58 | 53.39517 | 11.46605 | 36678 ft | 467 kts | 351° |
| 2026-05-07 09:59 | 53.42752 | 11.46128 | 36425 ft | 465 kts | 355° |
| 2026-05-07 09:59 | 53.45975 | 11.45968 | 36144 ft | 463 kts | 358° |
| 2026-05-07 09:59 | 53.49196 | 11.46015 | 35812 ft | 463 kts | 359° |
| 2026-05-07 09:59 | 53.52429 | 11.46123 | 35333 ft | 464 kts | 359° |
| 2026-05-07 10:00 | 53.55659 | 11.46238 | 34804 ft | 465 kts | 359° |
| 2026-05-07 10:00 | 53.58890 | 11.46347 | 34275 ft | 465 kts | 359° |
| 2026-05-07 10:00 | 53.62121 | 11.46444 | 33722 ft | 465 kts | 359° |
| 2026-05-07 10:00 | 53.65361 | 11.46536 | 33170 ft | 465 kts | 359° |
| 2026-05-07 10:01 | 53.68594 | 11.46732 | 32602 ft | 466 kts | 2° |
| 2026-05-07 10:01 | 53.71818 | 11.47231 | 32038 ft | 466 kts | 6° |
| 2026-05-07 10:01 | 53.75030 | 11.48058 | 31477 ft | 467 kts | 9° |
| 2026-05-07 10:01 | 53.78211 | 11.49216 | 30880 ft | 468 kts | 13° |
| 2026-05-07 10:02 | 53.81366 | 11.50596 | 30269 ft | 469 kts | 14° |
| 2026-05-07 10:02 | 53.84519 | 11.52043 | 29634 ft | 470 kts | 14° |
| 2026-05-07 10:02 | 53.87682 | 11.53508 | 29089 ft | 469 kts | 14° |
| 2026-05-07 10:02 | 53.90821 | 11.54959 | 28665 ft | 465 kts | 14° |
| 2026-05-07 10:03 | 53.93928 | 11.56390 | 28240 ft | 461 kts | 14° |
| 2026-05-07 10:03 | 53.97009 | 11.57804 | 27839 ft | 456 kts | 14° |
| 2026-05-07 10:03 | 54.00056 | 11.59202 | 27414 ft | 453 kts | 14° |
| 2026-05-07 10:03 | 54.03084 | 11.60591 | 26991 ft | 449 kts | 14° |
| 2026-05-07 10:04 | 54.06092 | 11.61973 | 26572 ft | 446 kts | 14° |
| 2026-05-07 10:04 | 54.09079 | 11.63347 | 26152 ft | 443 kts | 13° |
| 2026-05-07 10:04 | 54.12045 | 11.64711 | 25724 ft | 440 kts | 13° |
| 2026-05-07 10:04 | 54.14949 | 11.66048 | 25308 ft | 437 kts | 13° |
| 2026-05-07 10:05 | 54.17916 | 11.67416 | 24889 ft | 434 kts | 13° |
| 2026-05-07 10:05 | 54.20821 | 11.68759 | 24484 ft | 431 kts | 13° |
| 2026-05-07 10:05 | 54.23670 | 11.70078 | 24088 ft | 428 kts | 13° |
| 2026-05-07 10:05 | 54.26577 | 11.71427 | 23666 ft | 425 kts | 13° |
| 2026-05-07 10:06 | 54.29388 | 11.72731 | 23255 ft | 423 kts | 13° |
| 2026-05-07 10:06 | 54.32217 | 11.74048 | 22869 ft | 419 kts | 13° |
| 2026-05-07 10:06 | 54.35027 | 11.75357 | 22476 ft | 416 kts | 13° |
| 2026-05-07 10:06 | 54.37810 | 11.76654 | 22092 ft | 413 kts | 14° |
| 2026-05-07 10:07 | 54.40575 | 11.77945 | 21716 ft | 410 kts | 14° |
| 2026-05-07 10:07 | 54.43307 | 11.79292 | 21330 ft | 407 kts | 16° |
| 2026-05-07 10:07 | 54.45969 | 11.80894 | 20952 ft | 405 kts | 20° |
| 2026-05-07 10:07 | 54.48559 | 11.82769 | 20576 ft | 402 kts | 23° |
| 2026-05-07 10:08 | 54.51099 | 11.84761 | 20188 ft | 400 kts | 24° |
| 2026-05-07 10:08 | 54.53613 | 11.86766 | 19799 ft | 397 kts | 24° |
| 2026-05-07 10:08 | 54.56108 | 11.88750 | 19412 ft | 394 kts | 23° |
| 2026-05-07 10:08 | 54.58593 | 11.90718 | 19026 ft | 391 kts | 23° |
| 2026-05-07 10:09 | 54.61029 | 11.92781 | 18640 ft | 389 kts | 27° |
| 2026-05-07 10:09 | 54.63370 | 11.95092 | 18256 ft | 386 kts | 31° |
| 2026-05-07 10:09 | 54.65618 | 11.97602 | 17879 ft | 384 kts | 32° |
| 2026-05-07 10:09 | 54.67828 | 12.00157 | 17484 ft | 381 kts | 33° |
| 2026-05-07 10:10 | 54.70020 | 12.02707 | 17114 ft | 378 kts | 33° |
| 2026-05-07 10:10 | 54.72193 | 12.05236 | 16740 ft | 375 kts | 33° |
| 2026-05-07 10:10 | 54.74355 | 12.07749 | 16344 ft | 373 kts | 33° |
| 2026-05-07 10:10 | 54.76504 | 12.10247 | 15956 ft | 371 kts | 33° |
| 2026-05-07 10:11 | 54.78637 | 12.12726 | 15576 ft | 369 kts | 33° |
| 2026-05-07 10:11 | 54.80763 | 12.15200 | 15189 ft | 366 kts | 33° |
| 2026-05-07 10:11 | 54.82872 | 12.17656 | 14815 ft | 364 kts | 33° |
| 2026-05-07 10:11 | 54.84970 | 12.20103 | 14441 ft | 362 kts | 33° |
| 2026-05-07 10:12 | 54.87050 | 12.22532 | 14059 ft | 359 kts | 33° |
| 2026-05-07 10:12 | 54.88993 | 12.24805 | 13713 ft | 357 kts | 33° |
| 2026-05-07 10:12 | 54.91048 | 12.27211 | 13337 ft | 354 kts | 33° |
| 2026-05-07 10:12 | 54.93089 | 12.29602 | 12961 ft | 352 kts | 33° |
| 2026-05-07 10:13 | 54.95112 | 12.31973 | 12583 ft | 349 kts | 33° |
| 2026-05-07 10:13 | 54.97122 | 12.34331 | 12212 ft | 347 kts | 33° |
| 2026-05-07 10:13 | 54.99088 | 12.36636 | 11840 ft | 344 kts | 33° |
| 2026-05-07 10:13 | 55.01076 | 12.38964 | 11459 ft | 341 kts | 33° |
| 2026-05-07 10:14 | 55.03041 | 12.41253 | 11095 ft | 338 kts | 33° |
| 2026-05-07 10:14 | 55.04992 | 12.43526 | 10738 ft | 336 kts | 33° |
| 2026-05-07 10:14 | 55.06914 | 12.45769 | 10514 ft | 327 kts | 33° |
| 2026-05-07 10:14 | 55.08763 | 12.47932 | 10449 ft | 313 kts | 33° |
| 2026-05-07 10:15 | 55.10532 | 12.50005 | 10350 ft | 300 kts | 33° |
| 2026-05-07 10:15 | 55.12231 | 12.51998 | 10263 ft | 288 kts | 33° |
| 2026-05-07 10:15 | 55.13861 | 12.53913 | 10179 ft | 277 kts | 33° |
| 2026-05-07 10:15 | 55.15435 | 12.55764 | 10084 ft | 271 kts | 33° |
| 2026-05-07 10:16 | 55.17001 | 12.57606 | 9750 ft | 271 kts | 33° |
| 2026-05-07 10:16 | 55.17354 | 12.58022 | 9676 ft | 271 kts | 33° |
| 2026-05-07 10:16 | 55.18557 | 12.59439 | 9443 ft | 270 kts | 33° |
| 2026-05-07 10:16 | 55.20114 | 12.61274 | 9149 ft | 269 kts | 33° |
| 2026-05-07 10:17 | 55.21662 | 12.63099 | 8861 ft | 267 kts | 33° |
| 2026-05-07 10:17 | 55.23204 | 12.64871 | 8559 ft | 265 kts | 31° |
| 2026-05-07 10:17 | 55.24801 | 12.66471 | 8289 ft | 264 kts | 28° |
| 2026-05-07 10:17 | 55.26406 | 12.68021 | 7988 ft | 263 kts | 28° |
| 2026-05-07 10:18 | 55.28016 | 12.69568 | 7605 ft | 265 kts | 28° |
| 2026-05-07 10:18 | 55.29629 | 12.71122 | 7260 ft | 265 kts | 28° |
| 2026-05-07 10:18 | 55.31242 | 12.72678 | 6958 ft | 263 kts | 28° |
| 2026-05-07 10:18 | 55.32944 | 12.73813 | 6553 ft | 265 kts | 5° |
| 2026-05-07 10:19 | 55.34742 | 12.73173 | 6130 ft | 269 kts | 333° |
| 2026-05-07 10:19 | 55.36180 | 12.71016 | 5656 ft | 276 kts | 308° |
| 2026-05-07 10:19 | 55.36931 | 12.67912 | 5352 ft | 277 kts | 281° |
| 2026-05-07 10:19 | 55.37066 | 12.64550 | 5054 ft | 276 kts | 274° |
| 2026-05-07 10:20 | 55.37132 | 12.61171 | 4684 ft | 276 kts | 274° |
| 2026-05-07 10:20 | 55.37211 | 12.57797 | 4362 ft | 275 kts | 274° |
| 2026-05-07 10:20 | 55.37308 | 12.54456 | 4058 ft | 272 kts | 275° |
| 2026-05-07 10:20 | 55.37438 | 12.51142 | 3748 ft | 270 kts | 281° |
| 2026-05-07 10:21 | 55.38187 | 12.48213 | 3407 ft | 262 kts | 314° |
| 2026-05-07 10:21 | 55.39380 | 12.46675 | 3177 ft | 256 kts | 336° |
| 2026-05-07 10:21 | 55.39830 | 12.46318 | 3114 ft | 255 kts | 338° |
| 2026-05-07 10:21 | 55.41450 | 12.45102 | 2840 ft | 252 kts | 339° |
| 2026-05-07 10:22 | 55.43050 | 12.43894 | 2576 ft | 249 kts | 339° |
| 2026-05-07 10:22 | 55.44632 | 12.42679 | 2401 ft | 244 kts | 338° |
| 2026-05-07 10:22 | 55.46211 | 12.41992 | 2346 ft | 228 kts | 6° |
| 2026-05-07 10:22 | 55.47647 | 12.42763 | 2383 ft | 205 kts | 31° |
| 2026-05-07 10:23 | 55.48748 | 12.44121 | 2383 ft | 182 kts | 40° |
| 2026-05-07 10:23 | 55.49666 | 12.45482 | 2338 ft | 163 kts | 43° |
| 2026-05-07 10:23 | 55.50505 | 12.46794 | 2283 ft | 161 kts | 44° |
| 2026-05-07 10:23 | 55.51332 | 12.48104 | 2072 ft | 158 kts | 40° |
| 2026-05-07 10:24 | 55.52158 | 12.49387 | 1859 ft | 156 kts | 40° |
| 2026-05-07 10:24 | 55.52978 | 12.50658 | 1651 ft | 155 kts | 40° |
| 2026-05-07 10:24 | 55.53789 | 12.51918 | 1447 ft | 155 kts | 40° |
| 2026-05-07 10:24 | 55.54597 | 12.53175 | 1241 ft | 153 kts | 40° |
| 2026-05-07 10:25 | 55.55376 | 12.54387 | 1029 ft | 147 kts | 40° |
| 2026-05-07 10:25 | 55.56146 | 12.55584 | 835 ft | 146 kts | 40° |
| 2026-05-07 10:25 | 55.56911 | 12.56772 | 653 ft | 146 kts | 40° |
| 2026-05-07 10:25 | 55.57678 | 12.57961 | 460 ft | 146 kts | 40° |
| 2026-05-07 10:26 | 55.58445 | 12.59152 | 262 ft | 146 kts | 40° |
| 2026-05-07 10:26 | 55.59205 | 12.60330 | 65 ft | 145 kts | 40° |
| 2026-05-07 10:26 | 55.59840 | 12.61313 | 32 ft | 86 kts | 41° |
| 2026-05-07 10:26 | 55.60051 | 12.61641 | 34 ft | 42 kts | 41° |
| 2026-05-07 10:27 | 55.60270 | 12.61972 | 32 ft | 43 kts | 40° |
| 2026-05-07 10:27 | 55.60565 | 12.62307 | 34 ft | 36 kts | 20° |
| 2026-05-07 10:27 | 55.60754 | 12.62395 | 33 ft | 27 kts | 18° |
| 2026-05-07 10:27 | 55.60879 | 12.62539 | 32 ft | 10 kts | 40° |
| 2026-05-07 10:28 | 55.60941 | 12.62633 | 32 ft | 13 kts | 40° |
| 2026-05-07 10:28 | 55.61045 | 12.62791 | 32 ft | 26 kts | 40° |
| 2026-05-07 10:28 | 55.61216 | 12.63053 | 32 ft | 37 kts | 41° |
| 2026-05-07 10:28 | 55.61409 | 12.63357 | 32 ft | 37 kts | 41° |
| 2026-05-07 10:29 | 55.61605 | 12.63662 | 32 ft | 37 kts | 41° |
| 2026-05-07 10:29 | 55.61806 | 12.63972 | 32 ft | 38 kts | 40° |
| 2026-05-07 10:29 | 55.62023 | 12.64207 | 32 ft | 36 kts | 21° |
| 2026-05-07 10:30 | 55.62434 | 12.64463 | 32 ft | 25 kts | 6° |
| 2026-05-07 10:30 | 55.62535 | 12.64357 | 32 ft | 0 kts | 307° |
| 2026-05-07 10:30 | 55.62542 | 12.64341 | 32 ft | 4 kts | 308° |
| 2026-05-07 10:30 | 55.62568 | 12.64304 | 32 ft | 5 kts | 356° |
| 2026-05-07 10:31 | 55.62602 | 12.64346 | 32 ft | 0 kts | 54° |
| 2026-05-07 10:31 | 55.62607 | 12.64358 | 32 ft | 3 kts | 57° |
| 2026-05-07 10:31 | 55.62618 | 12.64392 | 32 ft | 0 kts | 64° |